Boggstown, Indiana
Current Conditions -  °F | °C
As of 12:53 PM on Thursday 29 Jan 2015 (Local Time) from KGEZ Reporting Station
Haze Haze  
Wind Chill: 29°   Ceiling: 1300
Heat Index: 39°   Visibility: 5mi
Dew Point: 33°   Wind: 20mph
Humidity: 79%   Direction: 270°W
Pressure: 29.87"   Gusts: 28mph
Location:  39.56°N, 85.92°W
Report Text: KGEZ 291753Z AUTO 27017G24KT 5SM HZ OVC013 04/01 A2987 RMK AO2 PK WND 27030/1654 SLP122 T00390006 10083 20039 53029
Loading
Personal Weather Stations






























Interactive Weather Map New forecast layout! Learn more

10-Day Weather Forecast

Advertisements
Track Severe Weather on mobile